Aviation Digital Data Service (ADDS)

Output produced by METARs form (1347 UTC 24 November 2014)
found at http://aviationweather.gov/adds/metars/
 
KCLT 241144Z 2412/2512 20010KT P6SM FEW018 BKN035 
     TEMPO 2412/2415 BKN017 OVC030 
     FM241700 21013G23KT P6SM BKN029 
     FM242300 21008KT P6SM SCT040 
     FM250800 27004KT P6SM BKN040